Time;durP1;ratioP1;P1;durP2;ratioP2;P2;SDS_P1;SDS_P2;PMS_P1;PMS_P2;Temp;Humidity;BMP_temperature;BMP_pressure;BME280_temperature;BME280_humidity;BME280_pressure;Samples;Min_cycle;Max_cycle;Signal;HPM_P1;HPM_P2
2021/01/03 00:00:52;;;;;;;3.67;3.47;;;;;;;3.15;84.68;100184.41;5035251;28;20120;-66
2021/01/03 00:03:18;;;;;;;3.40;3.20;;;;;;;3.12;84.95;100199.94;5035288;28;20046;-66
2021/01/03 00:05:44;;;;;;;3.47;3.28;;;;;;;3.10;84.99;100194.78;5034287;28;20080;-65
2021/01/03 00:08:10;;;;;;;3.80;3.60;;;;;;;3.10;84.94;100191.34;5035035;28;20175;-65
2021/01/03 00:10:36;;;;;;;3.70;3.50;;;;;;;3.08;84.94;100201.72;5034412;28;20056;-66
2021/01/03 00:13:02;;;;;;;3.88;3.67;;;;;;;3.10;85.02;100199.97;5037643;28;20054;-65
2021/01/03 00:15:29;;;;;;;3.60;3.40;;;;;;;3.13;84.96;100210.31;5046009;28;20045;-65
2021/01/03 00:17:55;;;;;;;3.40;3.20;;;;;;;3.16;85.01;100207.69;5055101;28;20459;-65
2021/01/03 00:20:23;;;;;;;3.28;3.13;;;;;;;3.20;84.89;100219.75;5055028;28;20048;-65
2021/01/03 00:22:50;;;;;;;3.70;3.50;;;;;;;3.24;84.89;100233.53;5055062;28;20131;-66
2021/01/03 00:25:17;;;;;;;3.63;3.42;;;;;;;3.25;85.05;100230.91;5054455;28;20457;-66
2021/01/03 00:27:43;;;;;;;3.60;3.40;;;;;;;3.26;84.79;100230.03;5054695;28;20461;-65
2021/01/03 00:30:13;;;;;;;3.80;3.60;;;;;;;3.25;85.08;100233.50;5054011;28;20045;-65
2021/01/03 00:32:40;;;;;;;3.17;3.08;;;;;;;3.22;85.06;100230.94;5054529;28;20589;-66
2021/01/03 00:35:08;;;;;;;3.42;3.22;;;;;;;3.24;84.96;100233.53;5054194;28;20444;-66
2021/01/03 00:37:35;;;;;;;3.47;3.28;;;;;;;3.28;85.05;100236.06;5053791;28;20127;-65
2021/01/03 00:40:01;;;;;;;3.47;3.28;;;;;;;3.28;85.05;100241.25;5054590;28;20110;-66
2021/01/03 00:42:27;;;;;;;3.80;3.60;;;;;;;3.31;84.99;100246.41;5054656;28;20179;-64
2021/01/03 00:44:53;;;;;;;3.83;3.63;;;;;;;3.34;84.84;100248.13;5054340;28;20044;-66
2021/01/03 00:47:19;;;;;;;3.60;3.40;;;;;;;3.35;84.80;100247.25;5038242;28;20046;-65
2021/01/03 00:49:46;;;;;;;3.40;3.20;;;;;;;3.33;84.86;100244.69;5034066;28;20049;-66
2021/01/03 00:52:12;;;;;;;3.53;3.33;;;;;;;3.34;84.98;100243.81;5033928;28;20050;-66
2021/01/03 00:54:38;;;;;;;3.40;3.20;;;;;;;3.32;84.90;100242.94;5033846;28;20042;-65
2021/01/03 00:57:04;;;;;;;3.60;3.40;;;;;;;3.34;84.91;100249.00;5034308;28;20037;-65
2021/01/03 00:59:30;;;;;;;3.83;3.63;;;;;;;3.32;84.98;100253.31;5033858;28;20045;-65
2021/01/03 01:01:56;;;;;;;3.67;3.47;;;;;;;3.32;84.98;100247.25;5033932;28;20041;-65
2021/01/03 01:04:22;;;;;;;3.80;3.60;;;;;;;3.34;85.02;100261.94;5033745;28;20132;-65
2021/01/03 01:06:49;;;;;;;3.60;3.40;;;;;;;3.35;84.87;100248.13;5032999;28;20137;-66
2021/01/03 01:09:15;;;;;;;3.42;3.22;;;;;;;3.35;85.03;100247.25;5034146;28;20052;-66
2021/01/03 01:11:42;;;;;;;3.60;3.40;;;;;;;3.38;85.05;100272.28;5034081;28;20132;-66
2021/01/03 01:14:08;;;;;;;3.45;3.25;;;;;;;3.38;84.99;100272.28;5033914;28;20046;-65
2021/01/03 01:16:35;;;;;;;3.55;3.35;;;;;;;3.37;84.96;100271.41;5032212;28;20362;-65
2021/01/03 01:19:02;;;;;;;3.22;3.10;;;;;;;3.39;85.04;100271.41;5044121;28;20087;-66
2021/01/03 01:21:28;;;;;;;3.60;3.40;;;;;;;3.38;84.85;100261.91;5043302;28;20132;-64
2021/01/03 01:23:55;;;;;;;3.70;3.50;;;;;;;3.38;84.92;100264.50;5052306;28;20074;-65
2021/01/03 01:26:21;;;;;;;3.70;3.50;;;;;;;3.35;84.91;100258.47;5040792;28;20416;-65
2021/01/03 01:28:47;;;;;;;3.58;3.38;;;;;;;3.35;84.89;100261.06;5045701;28;20047;-66
2021/01/03 01:31:13;;;;;;;3.50;3.30;;;;;;;3.34;84.94;100266.28;5052663;28;20095;-65
2021/01/03 01:33:40;;;;;;;3.60;3.40;;;;;;;3.35;84.95;100263.66;5053190;28;20489;-64
2021/01/03 01:36:06;;;;;;;3.60;3.40;;;;;;;3.36;84.92;100249.84;5049072;28;20404;-64
2021/01/03 01:38:33;;;;;;;3.50;3.30;;;;;;;3.35;84.85;100261.06;5034208;28;20494;-65
2021/01/03 01:41:00;;;;;;;3.50;3.30;;;;;;;3.34;85.01;100250.72;5044899;28;20476;-66
2021/01/03 01:43:27;;;;;;;3.53;3.33;;;;;;;3.31;84.89;100246.41;5037379;28;20520;-66
2021/01/03 01:45:53;;;;;;;3.50;3.30;;;;;;;3.31;84.89;100241.22;5046061;28;20045;-65
2021/01/03 01:48:21;;;;;;;3.58;3.38;;;;;;;3.32;84.97;100239.47;5052878;28;20531;-66
2021/01/03 01:50:51;;;;;;;3.47;3.28;;;;;;;3.30;84.90;100238.66;5052516;28;20090;-66
2021/01/03 01:53:22;;;;;;;3.20;3.10;;;;;;;3.28;84.93;100233.47;5052521;28;20049;-65
2021/01/03 01:55:54;;;;;;;3.50;3.30;;;;;;;3.31;84.91;100242.94;5051981;28;20055;-67
2021/01/03 01:58:28;;;;;;;3.65;3.45;;;;;;;3.32;84.92;100242.94;5049194;28;20048;-66
2021/01/03 02:00:59;;;;;;;3.08;2.97;;;;;;;3.29;84.98;100242.97;5052829;28;20043;-65
2021/01/03 02:03:34;;;;;;;3.58;3.38;;;;;;;3.29;84.87;100245.56;5052450;28;20045;-66
2021/01/03 02:06:04;;;;;;;3.85;3.65;;;;;;;3.30;84.89;100234.31;5053155;28;20045;-66
2021/01/03 02:08:35;;;;;;;3.70;3.50;;;;;;;3.32;85.03;100227.38;5052273;28;20045;-66
2021/01/03 02:11:04;;;;;;;3.70;3.50;;;;;;;3.39;85.03;100224.75;5052938;28;20401;-65
2021/01/03 02:13:34;;;;;;;3.65;3.45;;;;;;;3.40;84.93;100218.72;5051313;28;20045;-66
2021/01/03 02:16:07;;;;;;;3.63;3.43;;;;;;;3.42;84.89;100223.00;5052475;28;20145;-65
2021/01/03 02:18:33;;;;;;;3.40;3.20;;;;;;;3.44;84.88;100222.97;5045665;28;20115;-66
2021/01/03 02:21:10;;;;;;;3.55;3.35;;;;;;;3.46;85.05;100221.22;5032277;28;20136;-65
2021/01/03 02:23:43;;;;;;;29.60;28.30;;;;;;;3.48;84.95;100222.06;5031867;28;20416;-65
2021/01/03 02:26:12;;;;;;;3.85;3.65;;;;;;;3.50;85.05;100207.34;5032408;28;20416;-66
2021/01/03 02:28:41;;;;;;;3.40;3.20;;;;;;;3.51;84.84;100209.06;5045153;28;20045;-64
2021/01/03 02:31:08;;;;;;;3.90;3.70;;;;;;;3.53;84.97;100209.91;5048645;28;20041;-65
2021/01/03 02:33:38;;;;;;;3.67;3.47;;;;;;;3.52;84.86;100208.19;5049509;28;20055;-65
2021/01/03 02:36:11;;;;;;;3.63;3.43;;;;;;;3.53;84.96;100204.72;5051998;28;20452;-66
2021/01/03 02:38:42;;;;;;;3.35;3.15;;;;;;;3.56;84.98;100217.69;5051803;28;20797;-66
2021/01/03 02:41:09;;;;;;;3.63;3.42;;;;;;;3.57;84.86;100201.25;5048730;28;20040;-65
2021/01/03 02:43:36;;;;;;;3.70;3.50;;;;;;;3.58;84.74;100203.84;5051915;28;20059;-65
2021/01/03 02:46:02;;;;;;;3.78;3.58;;;;;;;3.57;84.84;100206.44;5049727;28;20522;-65
2021/01/03 02:48:28;;;;;;;3.60;3.40;;;;;;;3.58;84.74;100200.38;5046741;28;20500;-65
2021/01/03 02:50:54;;;;;;;3.67;3.47;;;;;;;3.57;85.00;100190.88;5032981;28;20519;-65
2021/01/03 02:53:21;;;;;;;3.50;3.30;;;;;;;3.58;84.92;100193.47;5033140;28;20045;-65
2021/01/03 02:55:47;;;;;;;3.20;3.10;;;;;;;3.55;84.83;100192.66;5032958;28;20136;-66
2021/01/03 02:58:14;;;;;;;3.33;3.15;;;;;;;3.51;84.83;100185.75;5033015;28;20056;-66
2021/01/03 03:00:40;;;;;;;3.53;3.33;;;;;;;3.53;84.82;100189.19;5032392;28;20489;-65
2021/01/03 03:03:08;;;;;;;3.90;3.70;;;;;;;3.55;84.86;100184.88;5032966;28;20075;-66
2021/01/03 03:05:34;;;;;;;3.17;3.08;;;;;;;3.57;84.91;100183.13;5033215;28;20500;-65
2021/01/03 03:08:01;;;;;;;3.72;3.53;;;;;;;3.57;84.92;100183.13;5032568;28;20080;-65
2021/01/03 03:10:27;;;;;;;3.58;3.38;;;;;;;3.55;84.72;100177.09;5032626;28;20489;-65
2021/01/03 03:12:55;;;;;;;3.55;3.35;;;;;;;3.52;84.73;100166.72;5033030;28;20469;-65
2021/01/03 03:15:24;;;;;;;3.45;3.25;;;;;;;3.47;84.83;100168.53;5033986;28;20067;-66
2021/01/03 03:17:50;;;;;;;3.70;3.50;;;;;;;3.44;84.80;100156.47;5047576;28;20045;-66
2021/01/03 03:20:18;;;;;;;3.80;3.60;;;;;;;3.41;84.98;100159.09;5042949;28;20041;-65
2021/01/03 03:22:46;;;;;;;3.45;3.25;;;;;;;3.43;84.79;100156.47;5052143;28;20435;-66
2021/01/03 03:25:14;;;;;;;3.15;3.05;;;;;;;3.46;84.95;100156.44;5050712;28;20052;-65
2021/01/03 03:27:40;;;;;;;2.90;2.80;;;;;;;3.46;84.75;100146.94;5052476;28;20049;-65
2021/01/03 03:30:09;;;;;;;3.42;3.22;;;;;;;3.47;84.98;100160.75;5052479;28;20053;-66
2021/01/03 03:32:36;;;;;;;3.58;3.38;;;;;;;3.48;84.89;100149.50;5052541;28;20040;-64
2021/01/03 03:35:04;;;;;;;3.63;3.42;;;;;;;3.44;84.99;100148.69;5051273;28;20059;-65
2021/01/03 03:37:30;;;;;;;3.55;3.35;;;;;;;3.45;84.83;100144.34;5052047;28;20136;-66
2021/01/03 03:39:56;;;;;;;3.40;3.20;;;;;;;3.45;85.09;100152.13;5052342;28;20048;-65
2021/01/03 03:42:22;;;;;;;3.38;3.17;;;;;;;3.47;84.93;100143.47;5052643;28;20053;-66
2021/01/03 03:44:48;;;;;;;3.33;3.15;;;;;;;3.48;84.97;100144.31;5051951;28;20485;-65
2021/01/03 03:47:14;;;;;;;3.60;3.40;;;;;;;3.47;84.90;100148.66;5052474;28;20052;-65
2021/01/03 03:49:41;;;;;;;3.13;3.03;;;;;;;3.48;84.85;100149.50;5052215;28;20098;-65
2021/01/03 03:52:07;;;;;;;2.95;2.85;;;;;;;3.50;85.00;100152.94;5049699;28;20070;-65
2021/01/03 03:54:34;;;;;;;3.38;3.17;;;;;;;3.51;84.91;100149.47;5051817;28;20132;-66
2021/01/03 03:57:03;;;;;;;3.47;3.28;;;;;;;3.50;84.92;100145.16;5050596;28;20567;-65
2021/01/03 03:59:30;;;;;;;3.70;3.50;;;;;;;3.45;85.04;100132.25;5052115;28;20102;-65
2021/01/03 04:01:56;;;;;;;3.53;3.33;;;;;;;3.45;84.99;100134.00;5052323;28;20053;-65
2021/01/03 04:04:24;;;;;;;3.65;3.45;;;;;;;3.44;85.07;100132.28;5052168;28;20051;-66
2021/01/03 04:06:51;;;;;;;3.50;3.30;;;;;;;3.44;85.01;100121.91;5051921;28;20056;-65
2021/01/03 04:09:17;;;;;;;3.28;3.13;;;;;;;3.42;84.99;100128.84;5052079;28;20051;-66
2021/01/03 04:11:46;;;;;;;3.60;3.40;;;;;;;3.42;85.01;100126.25;5051145;28;20373;-66
2021/01/03 04:14:15;;;;;;;3.70;3.50;;;;;;;3.41;85.03;100121.94;5051710;28;20420;-65
2021/01/03 04:16:45;;;;;;;3.53;3.33;;;;;;;3.36;84.96;100115.09;5052057;28;20057;-65
2021/01/03 04:19:12;;;;;;;3.78;3.58;;;;;;;3.37;85.06;100115.94;5051934;28;20055;-65
2021/01/03 04:21:38;;;;;;;3.38;3.20;;;;;;;3.41;85.02;100122.81;5042445;28;20042;-66
2021/01/03 04:24:06;;;;;;;3.35;3.17;;;;;;;3.44;84.96;100121.91;5031542;28;20045;-65
2021/01/03 04:26:32;;;;;;;3.40;3.20;;;;;;;3.48;84.98;100113.22;5030176;28;20083;-65
2021/01/03 04:28:58;;;;;;;3.50;3.30;;;;;;;3.47;84.74;100114.94;5031883;28;20053;-65
2021/01/03 04:31:24;;;;;;;3.28;3.13;;;;;;;3.48;84.79;100111.47;5031985;28;20048;-65
2021/01/03 04:33:50;;;;;;;3.53;3.33;;;;;;;3.49;84.89;100115.78;5031990;28;20080;-65
2021/01/03 04:36:18;;;;;;;3.40;3.20;;;;;;;3.50;84.88;100114.06;5034465;28;20049;-65
2021/01/03 04:38:45;;;;;;;3.15;3.05;;;;;;;3.47;85.01;100117.53;5033505;28;20053;-65
2021/01/03 04:41:17;;;;;;;3.47;3.28;;;;;;;3.48;84.97;100113.22;5034819;28;20427;-64
2021/01/03 04:43:44;;;;;;;3.53;3.33;;;;;;;3.48;85.11;100118.41;5035632;28;20099;-65
2021/01/03 04:46:17;;;;;;;3.03;2.92;;;;;;;3.50;84.88;100121.81;5034516;28;20477;-65
2021/01/03 04:48:47;;;;;;;3.45;3.25;;;;;;;3.51;85.04;100126.13;5033929;28;20386;-65
2021/01/03 04:51:25;;;;;;;3.50;3.30;;;;;;;3.51;84.91;100113.19;5039126;28;20049;-64
2021/01/03 04:53:58;;;;;;;3.50;3.30;;;;;;;3.48;84.86;100108.88;5054079;28;20087;-64
2021/01/03 04:56:34;;;;;;;3.35;3.15;;;;;;;3.46;84.96;100115.81;5049396;28;20063;-64
2021/01/03 04:59:10;;;;;;;3.50;3.30;;;;;;;3.46;85.04;100115.81;5055098;28;20306;-65
2021/01/03 05:02:05;;;;;;;3.67;3.47;;;;;;;3.46;84.99;100114.97;5053215;28;20236;-66
2021/01/03 05:04:54;;;;;;;3.45;3.25;;;;;;;3.43;84.83;100105.50;5054825;28;20128;-66
2021/01/03 05:07:26;;;;;;;3.42;3.22;;;;;;;3.44;84.75;100111.53;5054290;28;20079;-64
2021/01/03 05:09:57;;;;;;;3.63;3.42;;;;;;;3.41;84.90;100109.84;5054707;28;20084;-64
2021/01/03 05:12:25;;;;;;;;;;;;;;;3.51;84.61;100118.38;5055561;28;20512;-64
2021/01/03 05:14:57;;;;;;;3.60;3.40;;;;;;;3.39;84.82;100118.53;5050300;28;20375;-65
2021/01/03 05:17:23;;;;;;;3.38;3.17;;;;;;;3.36;84.91;100115.09;5054761;28;20049;-65
2021/01/03 05:19:50;;;;;;;3.50;3.30;;;;;;;3.36;84.79;100104.72;5054195;28;20083;-65
2021/01/03 05:22:31;;;;;;;3.42;3.22;;;;;;;3.35;84.95;100113.38;5047357;28;20128;-66
2021/01/03 05:24:59;;;;;;;3.40;3.20;;;;;;;3.40;84.88;100120.25;5046227;28;20568;-65
2021/01/03 05:27:27;;;;;;;3.45;3.25;;;;;;;3.39;85.03;100118.53;5045122;28;20394;-65
2021/01/03 05:29:53;;;;;;;3.20;3.08;;;;;;;3.39;84.89;100119.38;5048232;28;20102;-65
2021/01/03 05:32:29;;;;;;;3.47;3.28;;;;;;;3.37;84.99;100110.75;5038373;28;20141;-65
2021/01/03 05:34:56;;;;;;;3.53;3.33;;;;;;;3.35;84.82;100105.59;5034029;28;20049;-65
2021/01/03 05:37:26;;;;;;;3.55;3.35;;;;;;;3.32;84.83;100100.44;5034600;28;20045;-64
2021/01/03 05:39:52;;;;;;;3.42;3.22;;;;;;;3.32;84.88;100102.16;5034503;28;20049;-65
2021/01/03 05:42:32;;;;;;;3.47;3.28;;;;;;;3.28;84.78;100109.13;5033880;28;20041;-66
2021/01/03 05:45:01;;;;;;;3.22;3.10;;;;;;;3.30;84.80;100106.50;5034817;28;20052;-65
2021/01/03 05:47:31;;;;;;;3.40;3.20;;;;;;;3.25;84.90;100106.56;5033621;28;20122;-65
2021/01/03 05:50:14;;;;;;;3.20;3.10;;;;;;;3.23;84.93;100113.50;5034491;28;20049;-66
2021/01/03 05:52:48;;;;;;;3.53;3.33;;;;;;;3.22;84.87;100116.97;5034457;28;20489;-65
2021/01/03 05:55:21;;;;;;;3.80;3.60;;;;;;;3.21;84.93;100114.41;5033935;28;20060;-65
2021/01/03 05:57:48;;;;;;;3.22;3.10;;;;;;;3.20;84.78;100105.75;5033262;28;20056;-65
2021/01/03 06:00:21;;;;;;;3.42;3.22;;;;;;;3.19;84.87;100111.81;5041078;28;20041;-65
2021/01/03 06:02:48;;;;;;;3.63;3.42;;;;;;;3.17;84.95;100123.94;5053693;28;20057;-66
2021/01/03 06:05:18;;;;;;;3.15;3.05;;;;;;;3.15;84.70;100125.69;5052599;28;20041;-66
2021/01/03 06:08:05;;;;;;;3.15;3.05;;;;;;;3.12;84.66;100122.25;5052874;28;20057;-66
2021/01/03 06:10:34;;;;;;;3.40;3.20;;;;;;;3.11;84.88;100123.13;5053952;28;20049;-65
2021/01/03 06:13:03;;;;;;;3.42;3.22;;;;;;;3.10;84.89;100124.84;5053952;28;20120;-65
2021/01/03 06:15:34;;;;;;;3.15;3.05;;;;;;;3.09;84.85;100125.72;5053711;28;20067;-66
2021/01/03 06:18:01;;;;;;;3.22;3.13;;;;;;;3.10;84.80;100116.22;5053022;28;20443;-66
2021/01/03 06:20:30;;;;;;;3.53;3.33;;;;;;;3.04;84.79;100107.66;5053734;28;20091;-65
2021/01/03 06:23:00;;;;;;;3.55;3.35;;;;;;;3.02;85.08;100108.53;5053833;28;20056;-65
2021/01/03 06:25:34;;;;;;;3.17;3.07;;;;;;;3.00;84.77;100110.28;5044123;28;20182;-65
2021/01/03 06:28:10;;;;;;;3.45;3.25;;;;;;;2.97;84.72;100105.16;5048588;28;20098;-66
2021/01/03 06:30:39;;;;;;;3.28;3.15;;;;;;;2.96;84.81;100113.78;5043972;28;20067;-66
2021/01/03 06:33:46;;;;;;;3.50;3.30;;;;;;;2.94;84.92;100112.94;5044751;28;20048;-65
2021/01/03 06:36:17;;;;;;;3.47;3.28;;;;;;;2.93;84.88;100111.22;5051211;28;20049;-65
2021/01/03 06:38:58;;;;;;;;;;;;;;;2.98;84.68;100117.22;5053585;28;20407;-66
2021/01/03 06:41:32;;;;;;;3.40;3.20;;;;;;;2.87;84.98;100121.63;5030518;28;19921;-66
2021/01/03 06:44:23;;;;;;;3.58;3.38;;;;;;;2.84;84.99;100116.47;5052740;28;20053;-65
2021/01/03 06:47:02;;;;;;;;;;;;;;;2.92;84.77;100106.94;5053655;28;20105;-65
2021/01/03 06:49:47;;;;;;;3.45;3.25;;;;;;;2.82;85.03;100120.81;5053132;28;19921;-65
2021/01/03 06:52:33;;;;;;;3.53;3.33;;;;;;;2.85;85.28;100125.97;5052949;28;20065;-65
2021/01/03 06:55:23;;;;;;;3.33;3.15;;;;;;;2.86;85.24;100133.72;5045241;28;20045;-66
2021/01/03 06:58:32;;;;;;;3.08;2.97;;;;;;;2.88;85.24;100123.34;5032385;28;20049;-66
2021/01/03 07:01:08;;;;;;;3.50;3.30;;;;;;;2.90;85.10;100112.09;5026288;28;20640;-67
2021/01/03 07:03:35;;;;;;;3.08;2.97;;;;;;;2.92;85.11;100117.28;5041570;28;20463;-65
2021/01/03 07:06:04;;;;;;;3.08;2.97;;;;;;;2.95;85.24;100132.78;5052217;28;20049;-65
2021/01/03 07:08:36;;;;;;;3.20;3.10;;;;;;;2.98;85.13;100137.94;5052517;28;20055;-65
2021/01/03 07:11:02;;;;;;;3.38;3.20;;;;;;;3.00;85.07;100138.78;5052775;28;20049;-65
2021/01/03 07:13:41;;;;;;;3.58;3.38;;;;;;;2.97;85.21;100141.41;5052642;28;20132;-66
2021/01/03 07:16:48;;;;;;;3.42;3.22;;;;;;;2.98;85.20;100143.97;5051759;28;20045;-66
2021/01/03 07:19:18;;;;;;;3.47;3.28;;;;;;;2.99;84.96;100148.28;5052590;28;20049;-66
2021/01/03 07:21:45;;;;;;;3.60;3.40;;;;;;;2.99;85.11;100139.66;5052844;28;20060;-65
2021/01/03 07:24:32;;;;;;;3.50;3.30;;;;;;;2.95;85.21;100148.31;5052549;28;20136;-65
2021/01/03 07:27:23;;;;;;;3.58;3.38;;;;;;;2.96;85.23;100134.50;5052568;28;20052;-65
2021/01/03 07:30:01;;;;;;;3.00;2.90;;;;;;;2.97;85.29;100133.63;5044889;28;20055;-65
2021/01/03 07:32:45;;;;;;;3.10;3.00;;;;;;;2.96;85.40;100114.66;5032827;28;20440;-64
2021/01/03 07:35:31;;;;;;;3.47;3.28;;;;;;;3.00;85.23;100112.88;5049422;28;20045;-64
2021/01/03 07:38:25;;;;;;;3.10;3.00;;;;;;;2.99;85.19;100111.16;5052527;28;20049;-65
2021/01/03 07:40:56;;;;;;;3.40;3.20;;;;;;;3.00;85.25;100102.53;5050960;28;20048;-66
2021/01/03 07:43:24;;;;;;;3.58;3.38;;;;;;;3.01;85.11;100089.56;5052508;28;20132;-66
2021/01/03 07:45:51;;;;;;;3.63;3.42;;;;;;;3.02;85.18;100088.69;5052056;28;20045;-66
2021/01/03 07:48:34;;;;;;;3.60;3.40;;;;;;;3.01;85.25;100086.09;5051954;28;20056;-66
2021/01/03 07:51:01;;;;;;;3.08;2.97;;;;;;;3.05;85.16;100083.47;5049884;28;20053;-67
2021/01/03 07:53:34;;;;;;;3.50;3.30;;;;;;;3.06;85.18;100079.13;5040255;28;20381;-66
2021/01/03 07:56:19;;;;;;;3.40;3.20;;;;;;;3.09;85.23;100075.66;5032341;28;20053;-66
2021/01/03 07:58:50;;;;;;;3.47;3.28;;;;;;;3.08;85.26;100072.22;5032058;28;20049;-66
2021/01/03 08:01:19;;;;;;;3.17;3.08;;;;;;;3.10;85.10;100072.19;5030598;28;20051;-66
2021/01/03 08:03:46;;;;;;;3.33;3.13;;;;;;;3.10;85.24;100065.28;5034758;28;20127;-66
2021/01/03 08:06:13;;;;;;;3.33;3.17;;;;;;;3.13;85.33;100067.00;5037499;28;20056;-66
2021/01/03 08:08:39;;;;;;;3.20;3.08;;;;;;;3.17;85.21;100077.31;5051445;28;20396;-65
2021/01/03 08:11:16;;;;;;;3.47;3.28;;;;;;;3.18;85.20;100072.97;5053946;28;20135;-66
2021/01/03 08:13:46;;;;;;;3.42;3.22;;;;;;;3.17;85.26;100066.94;5055469;28;20049;-65
2021/01/03 08:16:20;;;;;;;3.10;3.00;;;;;;;3.17;85.01;100077.31;5055116;28;20113;-65
2021/01/03 08:19:04;;;;;;;3.53;3.33;;;;;;;3.18;85.20;100075.56;5055507;28;20059;-66
2021/01/03 08:21:31;;;;;;;3.65;3.45;;;;;;;3.21;85.04;100071.22;5052943;28;20086;-65
2021/01/03 08:24:06;;;;;;;3.20;3.10;;;;;;;3.20;85.22;100079.84;5055052;28;20103;-66
2021/01/03 08:26:39;;;;;;;3.53;3.33;;;;;;;3.22;85.14;100080.69;5053647;28;20057;-66
2021/01/03 08:29:14;;;;;;;3.22;3.10;;;;;;;3.23;85.20;100085.00;5047714;28;20049;-66
2021/01/03 08:31:46;;;;;;;3.42;3.22;;;;;;;3.27;85.11;100088.41;5047567;28;20135;-66
2021/01/03 08:34:16;;;;;;;3.30;3.10;;;;;;;3.30;85.24;100084.03;5049481;28;20523;-65
2021/01/03 08:36:42;;;;;;;3.20;3.10;;;;;;;3.35;85.28;100086.59;5050264;28;20053;-65
2021/01/03 08:39:13;;;;;;;3.20;3.08;;;;;;;3.37;85.19;100095.22;5050278;28;20048;-65
2021/01/03 08:41:50;;;;;;;3.53;3.33;;;;;;;3.42;85.28;100100.34;5054271;28;20076;-65
2021/01/03 08:44:21;;;;;;;3.38;3.17;;;;;;;3.46;85.20;100094.25;5050122;28;20048;-65
2021/01/03 08:46:49;;;;;;;3.60;3.40;;;;;;;3.52;85.21;100086.38;5051877;28;20503;-65
2021/01/03 08:49:16;;;;;;;3.42;3.22;;;;;;;3.56;85.15;100090.69;5053288;28;20537;-64
2021/01/03 08:51:43;;;;;;;3.28;3.10;;;;;;;3.59;85.14;100082.84;5054041;28;20110;-64
2021/01/03 08:54:11;;;;;;;3.55;3.35;;;;;;;3.60;85.20;100093.19;5054386;28;20132;-65
2021/01/03 08:56:46;;;;;;;3.42;3.22;;;;;;;3.62;85.29;100099.22;5054950;28;20094;-65
2021/01/03 08:59:15;;;;;;;3.50;3.30;;;;;;;3.63;85.17;100100.94;5047975;28;20063;-65
2021/01/03 09:01:42;;;;;;;3.53;3.33;;;;;;;3.66;85.20;100097.44;5053382;28;20136;-64
2021/01/03 09:04:14;;;;;;;3.42;3.22;;;;;;;3.68;85.37;100096.53;5049845;28;20045;-64
2021/01/03 09:06:42;;;;;;;3.40;3.20;;;;;;;3.66;85.12;100093.13;5043145;28;20053;-64
2021/01/03 09:09:10;;;;;;;3.40;3.20;;;;;;;3.67;85.08;100099.16;5044695;28;20068;-65
2021/01/03 09:11:47;;;;;;;3.10;3.00;;;;;;;3.67;85.21;100104.34;5048096;28;20043;-65
2021/01/03 09:14:20;;;;;;;3.08;2.97;;;;;;;3.68;85.10;100101.72;5045308;28;20465;-65
2021/01/03 09:16:53;;;;;;;3.40;3.20;;;;;;;3.74;85.19;100089.56;5046645;28;20056;-65
2021/01/03 09:19:25;;;;;;;3.42;3.22;;;;;;;3.82;85.22;100085.16;5045906;28;20494;-65
2021/01/03 09:21:55;;;;;;;3.25;3.10;;;;;;;3.87;85.20;100089.38;5045773;28;20041;-65
2021/01/03 09:24:24;;;;;;;3.58;3.38;;;;;;;3.92;85.17;100090.16;5049505;28;20127;-65
2021/01/03 09:26:51;;;;;;;3.47;3.28;;;;;;;3.95;85.22;100090.13;5050848;28;20131;-65
2021/01/03 09:29:25;;;;;;;3.50;3.30;;;;;;;4.00;85.15;100094.41;5051489;28;20137;-66
2021/01/03 09:32:03;;;;;;;3.60;3.40;;;;;;;4.07;85.25;100089.09;5052889;28;20041;-66
2021/01/03 09:34:39;;;;;;;3.40;3.20;;;;;;;4.10;84.99;100080.41;5052424;28;20041;-66
2021/01/03 09:37:17;;;;;;;3.58;3.38;;;;;;;4.08;85.17;100084.78;5052196;28;20045;-66
2021/01/03 09:40:01;;;;;;;3.35;3.15;;;;;;;4.08;85.07;100080.44;5051024;28;20074;-65
2021/01/03 09:42:36;;;;;;;3.88;3.67;;;;;;;4.12;85.14;100081.25;5050370;28;20041;-65
2021/01/03 09:45:29;;;;;;;3.40;3.20;;;;;;;4.13;85.23;100082.97;5048403;28;20259;-65
2021/01/03 09:47:56;;;;;;;3.40;3.20;;;;;;;4.16;85.03;100075.97;5048661;28;20053;-65
2021/01/03 09:50:30;;;;;;;3.40;3.20;;;;;;;4.19;85.00;100072.53;5053011;28;20151;-65
2021/01/03 09:53:10;;;;;;;3.50;3.30;;;;;;;4.22;85.26;100077.66;5051983;28;20053;-65
2021/01/03 09:55:54;;;;;;;3.40;3.20;;;;;;;4.25;85.01;100069.81;5046945;28;20106;-65
2021/01/03 09:58:21;;;;;;;3.22;3.10;;;;;;;4.31;85.04;100077.50;5047651;28;20127;-65
2021/01/03 10:00:53;;;;;;;3.40;3.20;;;;;;;4.30;84.93;100073.19;5045231;28;20549;-64
2021/01/03 10:03:23;;;;;;;3.35;3.15;;;;;;;4.33;85.25;100073.13;5049418;28;20127;-65
2021/01/03 10:05:51;;;;;;;3.40;3.20;;;;;;;4.33;85.15;100069.69;5042907;28;20036;-63
2021/01/03 10:08:24;;;;;;;3.88;3.67;;;;;;;4.38;85.23;100071.34;5020126;28;20068;-64
2021/01/03 10:10:54;;;;;;;3.28;3.10;;;;;;;4.46;85.10;100081.59;5051993;28;20045;-64
2021/01/03 10:13:22;;;;;;;3.50;3.30;;;;;;;4.55;84.94;100082.28;5052077;28;20037;-64
2021/01/03 10:15:49;;;;;;;3.45;3.25;;;;;;;4.62;85.16;100083.06;5050359;28;20048;-64
2021/01/03 10:18:30;;;;;;;3.60;3.40;;;;;;;4.85;85.24;100080.06;5051514;28;20033;-65
2021/01/03 10:20:56;;;;;;;3.53;3.33;;;;;;;5.16;85.09;100081.22;5049407;28;20106;-65
2021/01/03 10:23:34;;;;;;;3.20;3.10;;;;;;;5.48;85.22;100067.59;5052427;28;20045;-65
2021/01/03 10:26:02;;;;;;;3.20;3.10;;;;;;;5.76;85.17;100067.00;5044995;28;20497;-65
2021/01/03 10:28:28;;;;;;;3.70;3.50;;;;;;;5.98;85.12;100070.88;5032392;28;20055;-65
2021/01/03 10:30:54;;;;;;;3.72;3.53;;;;;;;6.13;85.18;100068.81;5048709;28;20504;-66
2021/01/03 10:33:21;;;;;;;3.97;3.78;;;;;;;6.16;85.12;100077.41;5051888;28;20047;-65
2021/01/03 10:35:47;;;;;;;3.80;3.60;;;;;;;6.33;85.16;100070.06;5051603;28;20094;-65
2021/01/03 10:38:13;;;;;;;3.70;3.50;;;;;;;6.50;85.11;100071.41;5051929;28;20586;-64
2021/01/03 10:40:40;;;;;;;3.90;3.70;;;;;;;6.72;85.23;100060.41;5050311;28;20414;-66
2021/01/03 10:43:06;;;;;;;3.75;3.55;;;;;;;6.91;84.93;100059.94;5051354;28;20059;-65
2021/01/03 10:45:33;;;;;;;3.90;3.70;;;;;;;6.94;84.82;100046.81;5049348;28;20531;-66
2021/01/03 10:47:59;;;;;;;3.80;3.60;;;;;;;6.99;84.98;100042.34;5049323;28;20051;-66
2021/01/03 10:50:25;;;;;;;3.83;3.63;;;;;;;7.12;84.96;100051.56;5051289;28;20051;-65
2021/01/03 10:52:51;;;;;;;3.83;3.63;;;;;;;7.27;84.74;100037.22;5051232;28;20081;-64
2021/01/03 10:55:20;;;;;;;3.70;3.50;;;;;;;7.22;84.98;100026.06;5050216;28;20093;-65
2021/01/03 10:57:47;;;;;;;3.90;3.70;;;;;;;7.24;84.81;100035.56;5031942;28;20140;-66
2021/01/03 11:00:15;;;;;;;3.90;3.70;;;;;;;7.24;84.61;100029.47;5031335;28;20049;-64
2021/01/03 11:02:41;;;;;;;3.55;3.35;;;;;;;7.34;84.82;100036.16;5031384;28;20514;-66
2021/01/03 11:05:08;;;;;;;3.95;3.75;;;;;;;7.56;84.63;100032.03;5031640;28;20052;-65
2021/01/03 11:07:34;;;;;;;3.75;3.55;;;;;;;7.77;84.75;100040.97;5033779;28;20132;-67
2021/01/03 11:10:01;;;;;;;4.10;3.90;;;;;;;8.06;84.52;100029.63;5050972;28;20047;-68
2021/01/03 11:12:27;;;;;;;3.80;3.60;;;;;;;8.35;84.41;100026.13;5051764;28;20048;-67
2021/01/03 11:14:54;;;;;;;3.95;3.75;;;;;;;8.43;84.28;100025.88;5051068;28;20051;-66
2021/01/03 11:17:20;;;;;;;4.05;3.85;;;;;;;8.40;84.38;100026.81;5050643;28;20102;-66
2021/01/03 11:19:46;;;;;;;3.88;3.67;;;;;;;8.37;84.07;100020.84;5050232;28;20451;-67
2021/01/03 11:22:14;;;;;;;3.75;3.55;;;;;;;8.23;84.08;100029.94;5050801;28;20044;-66
2021/01/03 11:24:41;;;;;;;3.90;3.70;;;;;;;8.08;83.93;100027.81;5050172;28;20412;-67
2021/01/03 11:27:09;;;;;;;3.80;3.60;;;;;;;7.97;83.89;100019.47;5044074;28;20131;-66
2021/01/03 11:29:36;;;;;;;4.00;3.80;;;;;;;7.75;83.76;100029.72;5047112;28;20044;-65
2021/01/03 11:32:06;;;;;;;3.58;3.38;;;;;;;7.61;83.85;100027.53;5048799;28;20045;-65
2021/01/03 11:34:33;;;;;;;3.67;3.47;;;;;;;7.41;83.77;100023.78;5050194;28;20059;-67
2021/01/03 11:37:01;;;;;;;3.97;3.78;;;;;;;7.33;83.84;100024.88;5050043;28;20055;-66
2021/01/03 11:39:29;;;;;;;3.58;3.38;;;;;;;7.19;83.73;100013.13;5050198;28;20067;-66
2021/01/03 11:41:58;;;;;;;3.95;3.75;;;;;;;7.13;83.78;100013.31;5048349;28;20407;-67
2021/01/03 11:44:25;;;;;;;4.03;3.83;;;;;;;7.16;83.89;100005.38;5049300;28;20045;-66
2021/01/03 11:46:57;;;;;;;3.85;3.65;;;;;;;7.15;83.99;100006.28;5047089;28;20060;-66
2021/01/03 11:49:24;;;;;;;4.07;3.88;;;;;;;7.17;83.99;100004.50;5047079;28;20045;-66